Time;durP1;ratioP1;P1;durP2;ratioP2;P2;SDS_P1;SDS_P2;PMS_P1;PMS_P2;Temp;Humidity;BMP_temperature;BMP_pressure;BME280_temperature;BME280_humidity;BME280_pressure;Samples;Min_cycle;Max_cycle;Signal;HPM_P1;HPM_P2
2022/05/29 00:00:58;;;;;;;21.65;4.45;;;9.70;99.90;;;;;;4975577;28;254730;-75
2022/05/29 00:03:24;;;;;;;22.42;4.65;;;9.70;99.90;;;;;;4975138;28;208625;-74
2022/05/29 00:05:50;;;;;;;18.75;4.75;;;9.70;99.90;;;;;;4942271;28;118724;-75
2022/05/29 00:08:31;;;;;;;20.80;4.78;;;9.70;99.90;;;;;;4983711;28;20131;-75
2022/05/29 00:10:58;;;;;;;16.98;4.00;;;9.70;99.90;;;;;;4916982;28;207846;-75
2022/05/29 00:13:25;;;;;;;19.27;4.15;;;9.70;99.90;;;;;;4939664;28;209305;-75
2022/05/29 00:15:52;;;;;;;18.92;4.65;;;9.70;99.90;;;;;;4962172;28;207837;-75
2022/05/29 00:18:18;;;;;;;17.75;4.25;;;9.70;99.90;;;;;;4994283;28;20057;-74
2022/05/29 00:20:51;;;;;;;22.65;5.10;;;9.70;99.90;;;;;;4966610;28;215031;-75
2022/05/29 00:23:20;;;;;;;24.77;6.10;;;9.70;99.90;;;;;;4984034;28;20054;-76
2022/05/29 00:25:49;;;;;;;20.05;4.50;;;9.70;99.90;;;;;;4951093;28;219342;-74
2022/05/29 00:28:16;;;;;;;24.40;4.28;;;9.70;99.90;;;;;;4992250;28;20524;-75
2022/05/29 00:30:42;;;;;;;22.20;4.57;;;9.70;99.90;;;;;;4953578;28;209126;-75
2022/05/29 00:33:09;;;;;;;22.15;4.57;;;9.70;99.90;;;;;;4997204;28;20043;-75
2022/05/29 00:35:37;;;;;;;17.98;4.20;;;9.70;99.90;;;;;;4933779;28;203911;-75
2022/05/29 00:38:04;;;;;;;20.92;4.45;;;9.70;99.90;;;;;;4974496;28;20369;-75
2022/05/29 00:40:41;;;;;;;21.58;4.88;;;9.70;99.90;;;;;;4930237;28;182826;-75
2022/05/29 00:43:08;;;;;;;23.00;4.97;;;9.70;99.90;;;;;;5011018;28;20074;-75
2022/05/29 00:45:46;;;;;;;17.88;4.28;;;9.60;99.90;;;;;;4949828;28;205047;-75
2022/05/29 00:48:18;;;;;;;27.98;5.03;;;9.60;99.90;;;;;;5009675;28;20062;-75
2022/05/29 00:50:49;;;;;;;26.55;4.97;;;9.60;99.90;;;;;;4966504;28;214571;-75
2022/05/29 00:53:19;;;;;;;20.45;4.78;;;9.60;99.90;;;;;;4994984;28;20058;-75
2022/05/29 00:55:50;;;;;;;24.63;5.38;;;9.60;99.90;;;;;;4944360;28;207282;-74
2022/05/29 00:58:18;;;;;;;20.80;4.78;;;9.60;99.90;;;;;;4974178;28;20054;-75
2022/05/29 01:00:44;;;;;;;18.80;4.60;;;9.60;99.90;;;;;;4931936;28;219410;-74
2022/05/29 01:03:10;;;;;;;22.33;4.82;;;9.60;99.90;;;;;;4980291;28;20047;-74
2022/05/29 01:05:37;;;;;;;20.70;4.53;;;9.50;99.90;;;;;;4946567;28;227472;-74
2022/05/29 01:08:09;;;;;;;17.52;4.53;;;9.50;99.90;;;;;;4976377;28;20046;-74
2022/05/29 01:11:03;;;;;;;22.10;4.63;;;9.50;99.90;;;;;;4946081;28;217778;-75
2022/05/29 01:13:48;;;;;;;17.20;4.03;;;9.40;99.90;;;;;;4933993;28;209357;-75
2022/05/29 01:16:21;;;;;;;19.45;4.75;;;9.40;99.90;;;;;;4970917;28;220552;-75
2022/05/29 01:18:58;;;;;;;16.55;4.30;;;9.50;99.90;;;;;;4952990;28;208571;-75
2022/05/29 01:21:42;;;;;;;22.80;4.55;;;9.50;99.90;;;;;;4955209;28;152716;-74
2022/05/29 01:24:40;;;;;;;23.35;4.53;;;9.50;99.90;;;;;;4943288;28;248781;-75
2022/05/29 01:27:35;;;;;;;20.00;4.90;;;9.40;99.90;;;;;;4973586;28;20051;-75
2022/05/29 01:30:13;;;;;;;20.27;4.88;;;9.50;99.90;;;;;;4930913;28;229349;-74
2022/05/29 01:33:02;;;;;;;18.73;4.28;;;9.40;99.90;;;;;;4955620;28;20058;-74
2022/05/29 01:35:42;;;;;;;24.77;4.20;;;9.40;99.90;;;;;;4946076;28;94805;-74
2022/05/29 01:38:11;;;;;;;20.50;5.07;;;9.40;99.90;;;;;;4976322;28;20069;-74
2022/05/29 01:40:46;;;;;;;20.95;4.97;;;9.40;99.90;;;;;;4968053;28;209505;-75
2022/05/29 01:43:44;;;;;;;20.83;4.88;;;9.40;99.90;;;;;;4992691;28;20066;-75
2022/05/29 01:46:20;;;;;;;19.58;4.53;;;9.40;99.90;;;;;;4921753;28;190316;-75
2022/05/29 01:48:58;;;;;;;23.35;5.07;;;9.40;99.90;;;;;;4965136;28;212972;-75
2022/05/29 01:51:31;;;;;;;17.50;4.68;;;9.40;99.90;;;;;;4951130;28;215835;-75
2022/05/29 01:54:09;;;;;;;15.73;4.22;;;9.40;99.90;;;;;;4937285;28;168320;-75
2022/05/29 01:56:44;;;;;;;23.50;5.35;;;9.40;99.90;;;;;;4954044;28;20079;-75
2022/05/29 01:59:23;;;;;;;21.90;4.95;;;9.40;99.90;;;;;;4939860;28;115688;-75
2022/05/29 02:02:03;;;;;;;18.50;4.93;;;9.40;99.90;;;;;;4988520;28;20078;-74
2022/05/29 02:04:31;;;;;;;18.75;5.18;;;9.40;99.90;;;;;;4898438;28;215759;-74
2022/05/29 02:09:53;;;;;;;24.70;5.47;;;9.40;99.90;;;;;;4947432;28;207174;-75
2022/05/29 02:12:23;;;;;;;20.58;4.60;;;9.40;99.90;;;;;;4962320;28;20054;-74
2022/05/29 02:14:57;;;;;;;19.58;4.88;;;9.40;99.90;;;;;;4897573;28;248686;-74
2022/05/29 02:17:29;;;;;;;21.42;4.70;;;9.40;99.90;;;;;;4955664;28;20050;-75
2022/05/29 02:20:02;;;;;;;20.02;4.35;;;9.40;99.90;;;;;;4943723;28;192119;-75
2022/05/29 02:22:31;;;;;;;19.67;4.63;;;9.40;99.90;;;;;;4978809;28;20051;-75
2022/05/29 02:25:05;;;;;;;18.58;4.53;;;9.40;99.90;;;;;;4930626;28;204842;-75
2022/05/29 02:28:07;;;;;;;20.25;4.53;;;9.40;99.90;;;;;;4976594;28;20057;-75
2022/05/29 02:30:52;;;;;;;17.88;4.18;;;9.40;99.90;;;;;;4907273;28;203436;-75
2022/05/29 02:33:25;;;;;;;18.58;4.75;;;9.30;99.90;;;;;;5005550;28;20050;-75
2022/05/29 02:36:24;;;;;;;19.50;4.38;;;9.40;99.90;;;;;;4954728;28;210496;-75
2022/05/29 02:39:17;;;;;;;19.17;4.70;;;9.40;99.90;;;;;;4958476;28;205583;-75
2022/05/29 02:42:14;;;;;;;20.83;5.00;;;9.30;99.90;;;;;;4948158;28;20058;-74
2022/05/29 02:45:15;;;;;;;22.02;4.50;;;9.30;99.90;;;;;;4914343;28;165882;-75
2022/05/29 02:48:11;;;;;;;17.97;4.50;;;9.30;99.90;;;;;;4955671;28;20061;-75
2022/05/29 02:50:57;;;;;;;22.23;4.65;;;9.30;99.90;;;;;;4892958;28;210055;-74
2022/05/29 02:53:54;;;;;;;17.40;4.10;;;9.30;99.90;;;;;;4953429;23;208433;-86
2022/05/29 02:57:15;;;;;;;15.40;4.00;;;9.30;99.90;;;;;;4906971;28;149742;-85
2022/05/29 03:00:17;;;;;;;17.13;4.13;;;9.30;99.90;;;;;;4691847;28;5990467;-85
2022/05/29 03:03:30;;;;;;;21.63;4.68;;;9.30;99.90;;;;;;4924870;28;127307;-85
2022/05/29 03:06:53;;;;;;;20.98;4.75;;;9.40;99.90;;;;;;4766121;28;3010050;-85
2022/05/29 03:17:35;;;;;;;17.45;3.60;;;9.40;99.90;;;;;;4742384;29;969609;-85
2022/05/29 03:20:47;;;;;;;;;;;;;;;;;;;;;
2022/05/29 03:24:11;;;;;;;24.77;4.22;;;9.40;99.90;;;;;;4832884;29;263362;-84
2022/05/29 03:27:09;;;;;;;16.25;4.13;;;9.50;99.90;;;;;;4471962;29;10003074;-84
2022/05/29 03:30:00;;;;;;;14.82;3.13;;;9.40;99.90;;;;;;4794114;29;919291;-84
2022/05/29 03:32:57;;;;;;;17.27;3.60;;;9.40;99.90;;;;;;4847341;29;20076;-84
2022/05/29 03:39:23;;;;;;;14.98;3.40;;;9.40;99.90;;;;;;4836503;29;20058;-84
2022/05/29 03:42:05;;;;;;;15.75;3.92;;;9.40;99.90;;;;;;5027201;28;206167;-72
2022/05/29 03:44:32;;;;;;;15.10;3.60;;;9.40;99.90;;;;;;4958070;28;206162;-72
2022/05/29 03:46:58;;;;;;;23.98;3.90;;;9.40;99.90;;;;;;5013038;28;20621;-72
2022/05/29 03:49:24;;;;;;;19.83;3.67;;;9.40;99.90;;;;;;4965898;28;206572;-72
2022/05/29 03:51:51;;;;;;;19.95;4.05;;;9.40;99.90;;;;;;5004673;28;20054;-72
2022/05/29 03:54:17;;;;;;;18.90;3.70;;;9.40;99.90;;;;;;4974537;22;210093;-77
2022/05/29 03:56:43;;;;;;;17.92;3.50;;;9.40;99.90;;;;;;4996326;28;20050;-76
2022/05/29 03:59:10;;;;;;;17.45;3.72;;;9.40;99.90;;;;;;4943736;28;206633;-76
2022/05/29 04:01:36;;;;;;;17.38;3.35;;;9.40;99.90;;;;;;4997357;28;20057;-76
2022/05/29 04:04:03;;;;;;;16.60;3.45;;;9.40;99.90;;;;;;4942042;28;205558;-76
2022/05/29 04:06:34;;;;;;;21.00;3.75;;;9.50;99.90;;;;;;4971297;28;159803;-79
2022/05/29 04:12:05;;;;;;;19.25;3.83;;;9.50;99.90;;;;;;4998280;28;20435;-79
2022/05/29 04:14:37;;;;;;;16.98;3.28;;;9.50;99.90;;;;;;4928156;28;205175;-78
2022/05/29 04:17:04;;;;;;;17.90;3.78;;;9.50;99.90;;;;;;4997074;28;20050;-79
2022/05/29 04:19:31;;;;;;;13.98;3.20;;;9.50;99.90;;;;;;4937000;28;243520;-80
2022/05/29 04:21:58;;;;;;;16.60;3.72;;;9.50;99.90;;;;;;4980983;28;20057;-79
2022/05/29 04:24:24;;;;;;;17.52;3.33;;;9.50;99.90;;;;;;4923908;28;206579;-80
2022/05/29 04:26:51;;;;;;;14.05;2.97;;;9.50;99.90;;;;;;4990010;28;20048;-79
2022/05/29 04:29:18;;;;;;;19.10;3.30;;;9.50;99.90;;;;;;4936269;28;205994;-79
2022/05/29 04:34:30;;;;;;;16.30;3.22;;;9.60;99.90;;;;;;4943681;28;205734;-79
2022/05/29 04:36:56;;;;;;;16.80;3.20;;;9.60;99.90;;;;;;4996749;28;20080;-79
2022/05/29 04:39:22;;;;;;;15.55;3.10;;;9.60;99.90;;;;;;4929586;28;240857;-81
2022/05/29 04:41:49;;;;;;;18.38;3.03;;;9.60;99.90;;;;;;4994370;28;20068;-81
2022/05/29 04:44:15;;;;;;;13.52;2.83;;;9.60;99.90;;;;;;4947303;28;205437;-81
2022/05/29 04:46:41;;;;;;;15.43;3.13;;;9.60;99.90;;;;;;4989961;28;20046;-80
2022/05/29 04:49:07;;;;;;;13.98;3.05;;;9.60;99.90;;;;;;4933840;28;208855;-80
2022/05/29 04:51:33;;;;;;;21.48;3.63;;;9.60;99.90;;;;;;4990602;28;20061;-80
2022/05/29 04:54:00;;;;;;;15.96;2.96;;;9.70;99.90;;;;;;4957623;28;238621;-80
2022/05/29 04:56:26;;;;;;;17.15;2.97;;;9.60;99.90;;;;;;4955423;28;20061;-80
2022/05/29 04:58:53;;;;;;;16.35;3.03;;;9.60;99.90;;;;;;4937009;28;205698;-80
2022/05/29 05:01:19;;;;;;;17.15;3.13;;;9.70;99.90;;;;;;4959157;28;215834;-80
2022/05/29 05:03:45;;;;;;;19.48;2.83;;;9.60;99.90;;;;;;4939213;28;215225;-81
2022/05/29 05:06:11;;;;;;;17.92;3.20;;;9.60;99.90;;;;;;4928787;28;279330;-79
2022/05/29 05:08:37;;;;;;;15.23;3.00;;;9.70;99.90;;;;;;4944406;28;214394;-79
2022/05/29 05:11:05;;;;;;;16.85;3.20;;;9.70;99.90;;;;;;4964111;28;26792;-79
2022/05/29 05:13:31;;;;;;;17.40;3.50;;;9.70;99.90;;;;;;4924677;28;212334;-80
2022/05/29 05:16:01;;;;;;;17.52;3.10;;;9.70;99.90;;;;;;4964555;28;76182;-80
2022/05/29 05:18:28;;;;;;;18.88;3.20;;;9.70;99.90;;;;;;4961364;28;230855;-80
2022/05/29 05:20:54;;;;;;;15.95;3.15;;;9.70;99.90;;;;;;4956714;28;128555;-79
2022/05/29 05:23:20;;;;;;;16.27;3.05;;;9.80;99.90;;;;;;4986245;28;20523;-79
2022/05/29 05:25:46;;;;;;;19.95;3.30;;;9.80;99.90;;;;;;4890662;28;249661;-79
2022/05/29 05:28:13;;;;;;;18.10;3.35;;;9.80;99.90;;;;;;4985096;28;20053;-79
2022/05/29 05:30:39;;;;;;;23.77;3.33;;;9.90;99.90;;;;;;4917869;28;207399;-79
2022/05/29 05:33:05;;;;;;;19.77;3.08;;;10.00;99.90;;;;;;4983380;28;20057;-80
2022/05/29 05:35:31;;;;;;;17.60;3.40;;;10.00;99.90;;;;;;4936060;28;217042;-79
2022/05/29 05:37:57;;;;;;;15.80;2.72;;;10.10;99.90;;;;;;4986521;28;20058;-79
2022/05/29 05:40:23;;;;;;;18.63;3.38;;;10.10;99.90;;;;;;4941682;28;205874;-79
2022/05/29 05:42:50;;;;;;;20.38;3.58;;;10.20;99.90;;;;;;4971931;28;20058;-79
2022/05/29 05:45:16;;;;;;;22.27;3.65;;;10.20;99.90;;;;;;4909778;28;208827;-80
2022/05/29 05:47:42;;;;;;;17.75;3.30;;;10.20;99.90;;;;;;4966263;28;20419;-80
2022/05/29 05:50:10;;;;;;;23.23;3.20;;;10.20;99.90;;;;;;4910036;28;245422;-80
2022/05/29 05:52:37;;;;;;;19.02;3.15;;;10.30;99.90;;;;;;4980604;28;20053;-79
2022/05/29 05:55:05;;;;;;;21.13;3.30;;;10.30;99.90;;;;;;4914741;28;190950;-78
2022/05/29 05:57:31;;;;;;;18.23;3.20;;;10.30;99.90;;;;;;4970834;28;20500;-79
2022/05/29 05:59:58;;;;;;;16.05;3.13;;;10.30;99.90;;;;;;4914133;28;218592;-79
2022/05/29 06:02:24;;;;;;;23.55;3.75;;;10.30;99.90;;;;;;4978411;28;20057;-79
2022/05/29 06:04:50;;;;;;;19.15;3.50;;;10.40;99.90;;;;;;4916014;28;208802;-80
2022/05/29 06:07:16;;;;;;;19.45;3.13;;;10.40;99.90;;;;;;4984013;28;20439;-79
2022/05/29 06:09:42;;;;;;;18.65;2.72;;;10.50;99.90;;;;;;4923710;28;204837;-78
2022/05/29 06:12:09;;;;;;;19.63;3.20;;;10.50;99.90;;;;;;4984519;28;20057;-79
2022/05/29 06:14:36;;;;;;;19.92;2.97;;;10.60;99.90;;;;;;4920838;28;210666;-79
2022/05/29 06:17:05;;;;;;;19.50;2.88;;;10.50;99.90;;;;;;4962453;28;20068;-78
2022/05/29 06:19:31;;;;;;;17.10;2.80;;;10.50;99.90;;;;;;4926714;28;205891;-79
2022/05/29 06:21:58;;;;;;;18.95;3.05;;;10.50;99.90;;;;;;4982516;28;20400;-79
2022/05/29 06:24:24;;;;;;;18.90;3.13;;;10.40;99.90;;;;;;4947183;28;182874;-78
2022/05/29 06:26:50;;;;;;;21.02;3.05;;;10.40;99.90;;;;;;4975660;28;20054;-78
2022/05/29 06:29:16;;;;;;;18.20;2.83;;;10.30;99.90;;;;;;4947356;28;226220;-80
2022/05/29 06:31:43;;;;;;;16.35;3.22;;;10.30;99.90;;;;;;4998287;28;20049;-79
2022/05/29 06:34:09;;;;;;;18.17;2.78;;;10.30;99.90;;;;;;4928717;28;211352;-79
2022/05/29 06:36:35;;;;;;;19.95;3.30;;;10.30;99.90;;;;;;4982116;28;20372;-79
2022/05/29 06:39:01;;;;;;;19.27;3.03;;;10.30;99.90;;;;;;4923898;28;206450;-78
2022/05/29 06:41:29;;;;;;;19.58;2.95;;;10.30;99.90;;;;;;4972694;28;20073;-79
2022/05/29 06:43:55;;;;;;;20.98;2.75;;;10.40;99.90;;;;;;4947462;28;126913;-79
2022/05/29 06:46:21;;;;;;;15.32;3.20;;;10.40;99.90;;;;;;4956429;28;128311;-78
2022/05/29 06:48:48;;;;;;;20.05;3.00;;;10.30;99.90;;;;;;4930459;28;206794;-80
2022/05/29 06:51:21;;;;;;;19.35;3.05;;;10.30;99.90;;;;;;4962275;28;72591;-77
2022/05/29 06:53:49;;;;;;;21.27;3.58;;;10.30;99.90;;;;;;4936303;28;208059;-78
2022/05/29 06:56:17;;;;;;;21.48;3.00;;;10.20;99.90;;;;;;4977721;28;35003;-76
2022/05/29 06:58:43;;;;;;;25.97;3.43;;;10.10;99.90;;;;;;4927506;28;210406;-77
2022/05/29 07:06:59;;;;;;;19.00;3.55;;;10.20;99.90;;;;;;4979409;28;20503;-77
2022/05/29 07:09:31;;;;;;;22.30;3.30;;;10.20;99.90;;;;;;4929705;28;227602;-76
2022/05/29 07:12:07;;;;;;;21.02;2.85;;;10.30;99.90;;;;;;4984438;28;20057;-76
2022/05/29 07:14:56;;;;;;;19.70;3.15;;;10.40;99.90;;;;;;4898411;28;210182;-76
2022/05/29 07:17:22;;;;;;;23.05;3.25;;;10.50;99.90;;;;;;4961711;28;20450;-77
2022/05/29 07:19:49;;;;;;;20.42;3.33;;;10.60;99.90;;;;;;4895431;28;218133;-75
2022/05/29 07:22:15;;;;;;;21.60;3.10;;;10.80;99.90;;;;;;4988870;28;20060;-76
2022/05/29 07:24:43;;;;;;;19.35;2.95;;;10.90;99.90;;;;;;4907481;28;218769;-76
2022/05/29 07:27:10;;;;;;;21.25;3.15;;;11.00;99.90;;;;;;4968537;28;20053;-76
2022/05/29 07:29:36;;;;;;;17.98;3.03;;;11.10;99.90;;;;;;4935407;28;206898;-76
2022/05/29 07:32:03;;;;;;;19.75;2.97;;;11.20;99.90;;;;;;4988719;28;20054;-75
2022/05/29 07:34:30;;;;;;;14.90;2.50;;;11.20;99.90;;;;;;4908324;28;245313;-75
2022/05/29 07:37:09;;;;;;;19.13;2.70;;;11.30;99.90;;;;;;4970621;28;20318;-75
2022/05/29 07:39:42;;;;;;;18.17;2.50;;;11.40;99.90;;;;;;4921674;28;212039;-74
2022/05/29 07:44:54;;;;;;;16.85;2.47;;;11.40;99.90;;;;;;4911913;28;208713;-75
2022/05/29 07:47:21;;;;;;;14.05;2.38;;;11.40;99.90;;;;;;4960345;28;20061;-75
2022/05/29 07:49:48;;;;;;;12.07;2.08;;;11.40;99.90;;;;;;4921407;28;205248;-75
2022/05/29 07:52:14;;;;;;;17.60;2.30;;;11.30;99.90;;;;;;4982632;28;20050;-75
2022/05/29 07:54:40;;;;;;;14.65;2.45;;;11.30;99.90;;;;;;4918765;28;200148;-75
2022/05/29 07:57:06;;;;;;;17.02;2.20;;;11.40;99.90;;;;;;4966573;28;20061;-75
2022/05/29 07:59:33;;;;;;;15.88;2.20;;;11.30;99.90;;;;;;4926845;28;159976;-75
2022/05/29 08:01:59;;;;;;;16.20;2.28;;;11.20;99.90;;;;;;4970903;28;20058;-74
2022/05/29 08:04:27;;;;;;;16.88;2.13;;;11.10;99.90;;;;;;4906937;28;209713;-74
2022/05/29 08:06:53;;;;;;;12.40;1.73;;;11.00;99.90;;;;;;4979994;28;20050;-75
2022/05/29 08:09:20;;;;;;;13.00;1.90;;;10.90;99.90;;;;;;4923471;28;211742;-74
2022/05/29 08:11:46;;;;;;;11.95;1.90;;;11.00;99.90;;;;;;4978251;28;20414;-74
2022/05/29 08:14:12;;;;;;;16.17;2.08;;;11.00;99.90;;;;;;4921437;28;207238;-75
2022/05/29 08:16:39;;;;;;;13.80;1.80;;;10.90;99.90;;;;;;4983376;28;20049;-75
2022/05/29 08:19:07;;;;;;;13.13;1.90;;;11.00;99.90;;;;;;4926446;28;276024;-74
2022/05/29 08:21:34;;;;;;;12.43;2.08;;;11.10;99.90;;;;;;4972850;28;20089;-74
2022/05/29 08:32:14;;;;;;;13.55;2.05;;;11.20;99.90;;;;;;4975945;28;20466;-75
2022/05/29 08:34:42;;;;;;;12.95;2.03;;;11.20;99.90;;;;;;4930091;28;206746;-74
2022/05/29 08:37:08;;;;;;;10.55;1.60;;;11.20;99.90;;;;;;4986348;28;20062;-76
2022/05/29 08:39:35;;;;;;;10.95;2.13;;;11.20;99.90;;;;;;4914758;28;211898;-75
2022/05/29 08:42:03;;;;;;;13.63;1.77;;;11.20;99.90;;;;;;4974911;28;20062;-75
2022/05/29 08:44:48;;;;;;;12.50;1.65;;;11.20;99.90;;;;;;4910636;28;206409;-75
2022/05/29 08:47:19;;;;;;;12.43;1.88;;;11.20;99.90;;;;;;4988873;28;20066;-75
2022/05/29 08:49:47;;;;;;;16.20;2.03;;;11.10;99.90;;;;;;4902977;28;218300;-75
2022/05/29 08:52:38;;;;;;;12.77;1.77;;;10.90;99.90;;;;;;4984651;28;20093;-76
2022/05/29 08:55:15;;;;;;;13.38;1.80;;;10.90;99.90;;;;;;4914942;28;206368;-77
2022/05/29 08:58:19;;;;;;;11.60;1.80;;;10.90;99.90;;;;;;4982136;28;20412;-75
2022/05/29 09:01:18;;;;;;;11.60;1.88;;;11.00;99.90;;;;;;4917822;28;206215;-76
2022/05/29 09:03:58;;;;;;;11.52;1.90;;;11.10;99.90;;;;;;4933665;28;219220;-75
2022/05/29 09:06:37;;;;;;;14.50;1.90;;;11.20;99.90;;;;;;4940515;28;166536;-75
2022/05/29 09:09:26;;;;;;;12.10;1.83;;;11.30;99.90;;;;;;4912470;28;239230;-77
2022/05/29 09:11:58;;;;;;;14.77;1.90;;;11.30;99.90;;;;;;4980729;28;20589;-77
2022/05/29 09:14:31;;;;;;;14.20;2.25;;;11.30;99.90;;;;;;4919871;28;252201;-74
2022/05/29 09:17:03;;;;;;;11.38;1.50;;;11.40;99.90;;;;;;4970774;28;20061;-76
2022/05/29 09:19:48;;;;;;;10.35;1.50;;;11.20;99.90;;;;;;4904817;28;207495;-77
2022/05/29 09:22:30;;;;;;;15.15;1.70;;;11.10;99.90;;;;;;4980774;28;20069;-75
2022/05/29 09:25:30;;;;;;;11.90;1.80;;;11.20;99.90;;;;;;4896218;28;217288;-77
2022/05/29 09:28:03;;;;;;;12.75;2.67;;;11.30;99.90;;;;;;4968663;28;20438;-75
2022/05/29 09:30:30;;;;;;;13.13;1.95;;;11.40;99.90;;;;;;4922017;28;212971;-76
2022/05/29 09:33:03;;;;;;;14.38;1.80;;;11.50;99.90;;;;;;4982166;28;20058;-77
2022/05/29 09:35:41;;;;;;;11.23;1.60;;;11.70;99.90;;;;;;4889568;28;245899;-76
2022/05/29 09:38:24;;;;;;;11.82;1.88;;;11.80;99.90;;;;;;4990837;28;20041;-77
2022/05/29 09:40:55;;;;;;;14.80;2.10;;;12.00;99.90;;;;;;4915751;28;207068;-76
2022/05/29 09:43:23;;;;;;;11.50;1.67;;;12.20;99.90;;;;;;4970224;28;20442;-76
2022/05/29 09:45:53;;;;;;;12.07;1.45;;;12.30;99.90;;;;;;4893019;28;211013;-77
2022/05/29 09:51:15;;;;;;;16.00;2.00;;;12.50;99.90;;;;;;4904577;28;205517;-77
2022/05/29 09:54:01;;;;;;;;;;;;;;;;;;;;;
2022/05/29 09:56:30;;;;;;;13.45;2.00;;;12.50;99.90;;;;;;4966683;28;313584;-79
2022/05/29 09:59:15;;;;;;;10.63;1.90;;;12.20;99.90;;;;;;4947314;28;214085;-77
2022/05/29 10:01:46;;;;;;;9.45;1.42;;;12.10;99.90;;;;;;4959910;28;20055;-75
2022/05/29 10:04:44;;;;;;;12.07;1.80;;;12.00;99.90;;;;;;4923796;28;211998;-76
2022/05/29 10:07:30;;;;;;;11.45;1.90;;;11.80;99.90;;;;;;4964297;23;20061;-68
2022/05/29 10:10:23;;;;;;;12.13;2.00;;;11.70;99.90;;;;;;4940242;28;214816;-69
2022/05/29 10:12:50;;;;;;;11.32;1.75;;;11.60;99.90;;;;;;5007022;28;20046;-68
2022/05/29 10:15:24;;;;;;;14.52;1.85;;;11.50;99.90;;;;;;4918916;28;212979;-69
2022/05/29 10:17:56;;;;;;;12.40;2.00;;;11.60;99.90;;;;;;5007868;28;20076;-69
2022/05/29 10:22:54;;;;;;;12.90;1.83;;;12.00;99.90;;;;;;5040952;28;20056;-68
2022/05/29 10:25:24;;;;;;;11.85;1.60;;;12.30;99.90;;;;;;4996105;28;216714;-69
2022/05/29 10:27:52;;;;;;;10.68;1.67;;;12.50;99.90;;;;;;5037081;28;20279;-69
2022/05/29 10:30:33;;;;;;;17.70;1.98;;;12.80;99.90;;;;;;4983280;28;183927;-69
2022/05/29 10:33:04;;;;;;;14.63;2.00;;;13.10;99.90;;;;;;5017747;28;20053;-68
2022/05/29 10:35:38;;;;;;;17.20;2.00;;;13.50;99.90;;;;;;4984447;28;207308;-69
2022/05/29 10:38:22;;;;;;;11.70;2.20;;;13.80;99.90;;;;;;5004095;28;20049;-68
2022/05/29 10:40:51;;;;;;;15.57;2.45;;;13.80;99.90;;;;;;4982376;28;207692;-69
2022/05/29 10:43:34;;;;;;;14.35;2.22;;;13.40;99.90;;;;;;5001556;28;20442;-70
2022/05/29 10:46:06;;;;;;;11.70;1.80;;;13.20;99.90;;;;;;4955047;28;241773;-70
2022/05/29 10:49:10;;;;;;;11.00;1.60;;;12.80;99.90;;;;;;4969534;28;209186;-70
2022/05/29 10:52:10;;;;;;;16.33;2.15;;;12.20;99.90;;;;;;5004383;28;20053;-70
2022/05/29 10:54:51;;;;;;;12.73;2.00;;;12.10;99.90;;;;;;4977481;28;212232;-70
2022/05/29 10:57:45;;;;;;;11.45;1.73;;;12.20;99.90;;;;;;5023166;28;20061;-70
2022/05/29 11:00:51;;;;;;;14.50;1.85;;;12.10;99.90;;;;;;4970266;28;203072;-69
2022/05/29 11:04:00;;;;;;;9.80;1.60;;;12.20;99.90;;;;;;5020119;28;20049;-70
2022/05/29 11:06:51;;;;;;;8.18;1.23;;;12.20;99.90;;;;;;4979065;28;20049;-70
2022/05/29 11:09:44;;;;;;;10.93;1.30;;;12.40;99.90;;;;;;4940586;28;205411;-70
2022/05/29 11:12:41;;;;;;;10.90;1.35;;;12.60;99.90;;;;;;5028009;28;20409;-69
2022/05/29 11:15:27;;;;;;;7.32;1.30;;;12.90;99.90;;;;;;4926971;28;206020;-69
2022/05/29 11:18:20;;;;;;;9.43;1.50;;;13.40;99.90;;;;;;4989374;28;20045;-69
2022/05/29 11:21:18;;;;;;;7.82;1.20;;;13.70;99.90;;;;;;4900335;28;227999;-68
2022/05/29 11:23:44;;;;;;;11.50;1.70;;;14.10;99.90;;;;;;4885134;28;206315;-70
2022/05/29 11:26:22;;;;;;;8.68;1.50;;;14.20;99.90;;;;;;4909586;28;21281;-69
2022/05/29 11:28:54;;;;;;;9.65;1.48;;;14.40;99.90;;;;;;4882531;29;210337;-69
2022/05/29 11:31:57;;;;;;;10.30;1.52;;;14.10;99.90;;;;;;4872468;29;25160;-69
2022/05/29 11:34:49;;;;;;;10.32;1.60;;;13.90;99.90;;;;;;4850006;28;212207;-68
2022/05/29 11:37:21;;;;;;;13.15;1.88;;;13.60;99.90;;;;;;4900722;29;20059;-70
2022/05/29 11:40:00;;;;;;;14.75;1.85;;;13.00;99.90;;;;;;4830598;29;213837;-70
2022/05/29 11:42:46;;;;;;;15.07;1.98;;;12.70;99.90;;;;;;4911772;29;20059;-70
2022/05/29 11:51:31;;;;;;;14.63;2.70;;;12.20;99.90;;;;;;4898760;29;26888;-69
2022/05/29 11:54:02;;;;;;;14.40;2.40;;;12.40;99.90;;;;;;4893786;28;218171;-69
2022/05/29 11:56:37;;;;;;;11.65;2.60;;;12.50;99.90;;;;;;4892053;29;20055;-69
2022/05/29 11:59:51;;;;;;;12.02;2.38;;;12.80;99.90;;;;;;4887661;28;229348;-69
2022/05/29 12:02:33;;;;;;;11.48;2.00;;;13.00;99.90;;;;;;5027415;28;20057;-69
2022/05/29 12:05:28;;;;;;;14.20;2.22;;;13.30;99.90;;;;;;4958749;28;214850;-69
2022/05/29 12:08:32;;;;;;;15.48;2.35;;;13.60;99.90;;;;;;5003970;28;20135;-69
2022/05/29 12:11:19;;;;;;;11.25;2.03;;;13.90;99.90;;;;;;4958677;28;211249;-69
2022/05/29 12:14:08;;;;;;;10.90;1.58;;;13.80;99.90;;;;;;4977574;28;208455;-69
2022/05/29 12:16:38;;;;;;;12.77;2.00;;;13.90;99.90;;;;;;4983936;28;20045;-69
2022/05/29 12:19:13;;;;;;;10.90;1.87;;;13.80;99.90;;;;;;4950145;28;204930;-69
2022/05/29 12:21:50;;;;;;;13.68;2.00;;;13.70;99.90;;;;;;5013633;28;20073;-69
2022/05/29 12:24:23;;;;;;;10.80;1.67;;;13.70;99.90;;;;;;4964446;28;209507;-69
2022/05/29 12:27:20;;;;;;;13.50;1.90;;;13.60;99.90;;;;;;5033585;28;20068;-69
2022/05/29 12:30:01;;;;;;;14.63;2.17;;;13.50;99.90;;;;;;4965084;28;214831;-69
2022/05/29 12:32:31;;;;;;;14.20;2.00;;;13.30;99.90;;;;;;5023858;28;20057;-69
2022/05/29 12:35:07;;;;;;;15.43;2.13;;;13.20;99.90;;;;;;4972948;28;208726;-69
2022/05/29 12:37:52;;;;;;;14.32;2.47;;;13.10;99.90;;;;;;5022238;28;20057;-69
2022/05/29 12:40:38;;;;;;;14.07;2.03;;;13.10;99.90;;;;;;4953980;28;210478;-69
2022/05/29 12:43:34;;;;;;;16.00;1.75;;;13.00;99.90;;;;;;5021251;28;20415;-69
2022/05/29 12:46:22;;;;;;;17.00;2.20;;;12.70;99.90;;;;;;4960854;28;206557;-69
2022/05/29 12:48:51;;;;;;;12.60;2.00;;;12.60;99.90;;;;;;4973391;28;211062;-69
2022/05/29 12:51:35;;;;;;;11.10;1.70;;;12.70;99.90;;;;;;4970285;28;180730;-69
2022/05/29 12:54:05;;;;;;;17.70;2.17;;;12.80;99.90;;;;;;4965259;28;205650;-68
2022/05/29 12:56:40;;;;;;;15.70;2.42;;;12.90;99.90;;;;;;5012949;28;20050;-69
2022/05/29 12:59:47;;;;;;;14.33;2.30;;;12.90;99.90;;;;;;4963408;28;210692;-69
2022/05/29 13:02:25;;;;;;;11.70;2.03;;;12.90;99.90;;;;;;4962013;28;20908;-68
2022/05/29 13:05:18;;;;;;;13.98;2.10;;;13.00;99.90;;;;;;4915453;28;206131;-69
2022/05/29 13:08:03;;;;;;;16.67;2.53;;;13.00;99.90;;;;;;4961931;28;20769;-69
2022/05/29 13:10:40;;;;;;;13.95;1.98;;;13.10;99.90;;;;;;4917337;28;204290;-68
2022/05/29 13:13:06;;;;;;;14.10;1.88;;;13.20;99.90;;;;;;4958644;28;20058;-70
2022/05/29 13:15:36;;;;;;;14.63;2.17;;;13.30;99.90;;;;;;4937997;28;207861;-69
2022/05/29 13:18:17;;;;;;;15.30;2.00;;;13.50;99.90;;;;;;4985736;28;20046;-70
2022/05/29 13:21:18;;;;;;;10.38;1.70;;;13.50;99.90;;;;;;4935536;28;206208;-69
2022/05/29 13:23:55;;;;;;;16.50;2.15;;;13.50;99.90;;;;;;4935327;28;209475;-68
2022/05/29 13:26:30;;;;;;;12.65;1.98;;;13.30;99.90;;;;;;4987237;28;55316;-69
2022/05/29 13:29:03;;;;;;;13.57;2.10;;;13.30;99.90;;;;;;4922027;28;206674;-70
2022/05/29 13:31:32;;;;;;;15.88;1.98;;;13.30;99.90;;;;;;4949834;28;20054;-69
2022/05/29 13:34:27;;;;;;;17.52;2.33;;;13.30;99.90;;;;;;4919836;28;161683;-69
2022/05/29 13:36:53;;;;;;;17.13;2.38;;;13.40;99.90;;;;;;4862777;29;20142;-69
2022/05/29 13:39:28;;;;;;;14.70;1.90;;;13.40;99.90;;;;;;4835117;29;206469;-69
2022/05/29 13:41:59;;;;;;;13.80;1.92;;;13.50;99.90;;;;;;4918359;29;20796;-69
2022/05/29 13:44:40;;;;;;;13.52;2.13;;;13.40;99.90;;;;;;4858633;29;212801;-69
2022/05/29 13:47:25;;;;;;;13.27;1.90;;;13.30;99.90;;;;;;4917661;29;20070;-69
2022/05/29 13:50:12;;;;;;;12.35;1.95;;;13.20;99.90;;;;;;4883271;29;110634;-69
2022/05/29 13:52:57;;;;;;;13.68;2.05;;;13.20;99.90;;;;;;4921134;29;20056;-69
2022/05/29 13:55:27;;;;;;;17.67;2.20;;;13.30;99.90;;;;;;4870422;29;206498;-69
2022/05/29 14:03:58;;;;;;;13.85;1.92;;;13.20;99.90;;;;;;4863174;28;209843;-68
2022/05/29 14:06:36;;;;;;;14.48;1.98;;;13.10;99.90;;;;;;4892273;29;231330;-68
2022/05/29 14:09:08;;;;;;;11.27;1.80;;;12.80;99.90;;;;;;4873340;28;207142;-68
2022/05/29 14:11:42;;;;;;;16.58;2.58;;;12.60;99.90;;;;;;4932667;29;20059;-69
2022/05/29 14:14:30;;;;;;;13.60;2.20;;;12.40;99.90;;;;;;4920211;28;212189;-69
2022/05/29 14:17:24;;;;;;;15.85;2.20;;;12.10;99.90;;;;;;5007380;28;20045;-68